sensor_id;sensor_type;location;lat;lon;timestamp;P1;durP1;ratioP1;P2;durP2;ratioP2
41365;SDS011;27108;44.776;20.476;2022-09-12T00:02:09;3.20;;;0.68;;
41365;SDS011;27108;44.776;20.476;2022-09-12T00:04:41;1.20;;;0.98;;
41365;SDS011;27108;44.776;20.476;2022-09-12T00:07:14;1.98;;;0.95;;
41365;SDS011;27108;44.776;20.476;2022-09-12T00:09:42;2.17;;;0.80;;
41365;SDS011;27108;44.776;20.476;2022-09-12T00:12:13;1.75;;;0.80;;
41365;SDS011;27108;44.776;20.476;2022-09-12T00:14:47;1.25;;;0.63;;
41365;SDS011;27108;44.776;20.476;2022-09-12T00:17:17;2.88;;;1.08;;
41365;SDS011;27108;44.776;20.476;2022-09-12T00:19:51;1.95;;;0.90;;
41365;SDS011;27108;44.776;20.476;2022-09-12T00:22:24;1.80;;;0.82;;
41365;SDS011;27108;44.776;20.476;2022-09-12T00:24:54;1.50;;;1.00;;
41365;SDS011;27108;44.776;20.476;2022-09-12T00:27:23;0.95;;;0.80;;
41365;SDS011;27108;44.776;20.476;2022-09-12T00:29:54;0.85;;;0.70;;
41365;SDS011;27108;44.776;20.476;2022-09-12T00:32:24;2.17;;;0.82;;
41365;SDS011;27108;44.776;20.476;2022-09-12T00:34:58;1.55;;;0.80;;
41365;SDS011;27108;44.776;20.476;2022-09-12T00:37:30;1.45;;;0.85;;
41365;SDS011;27108;44.776;20.476;2022-09-12T00:40:01;2.13;;;0.98;;
41365;SDS011;27108;44.776;20.476;2022-09-12T00:42:30;1.75;;;1.05;;
41365;SDS011;27108;44.776;20.476;2022-09-12T00:47:58;0.98;;;0.90;;
41365;SDS011;27108;44.776;20.476;2022-09-12T00:50:30;5.30;;;0.93;;
41365;SDS011;27108;44.776;20.476;2022-09-12T00:53:05;1.75;;;0.70;;
41365;SDS011;27108;44.776;20.476;2022-09-12T00:55:39;4.30;;;0.90;;
41365;SDS011;27108;44.776;20.476;2022-09-12T00:58:12;4.57;;;0.90;;
41365;SDS011;27108;44.776;20.476;2022-09-12T01:00:44;1.35;;;0.70;;
41365;SDS011;27108;44.776;20.476;2022-09-12T01:03:21;2.30;;;1.10;;
41365;SDS011;27108;44.776;20.476;2022-09-12T01:05:52;1.63;;;0.93;;
41365;SDS011;27108;44.776;20.476;2022-09-12T01:08:28;1.23;;;0.82;;
41365;SDS011;27108;44.776;20.476;2022-09-12T01:11:00;0.65;;;0.57;;
41365;SDS011;27108;44.776;20.476;2022-09-12T01:13:33;2.00;;;0.75;;
41365;SDS011;27108;44.776;20.476;2022-09-12T01:16:03;1.40;;;0.70;;
41365;SDS011;27108;44.776;20.476;2022-09-12T01:18:38;2.58;;;0.70;;
41365;SDS011;27108;44.776;20.476;2022-09-12T01:21:28;2.40;;;0.90;;
41365;SDS011;27108;44.776;20.476;2022-09-12T01:27:23;1.35;;;0.98;;
41365;SDS011;27108;44.776;20.476;2022-09-12T01:33:33;2.70;;;0.93;;
41365;SDS011;27108;44.776;20.476;2022-09-12T01:36:26;1.88;;;0.90;;
41365;SDS011;27108;44.776;20.476;2022-09-12T01:42:04;1.38;;;0.70;;
41365;SDS011;27108;44.776;20.476;2022-09-12T01:44:46;1.15;;;0.73;;
41365;SDS011;27108;44.776;20.476;2022-09-12T01:47:29;1.85;;;1.00;;
41365;SDS011;27108;44.776;20.476;2022-09-12T01:50:21;1.05;;;0.90;;
41365;SDS011;27108;44.776;20.476;2022-09-12T01:52:58;1.17;;;0.80;;
41365;SDS011;27108;44.776;20.476;2022-09-12T01:55:31;1.38;;;0.80;;
41365;SDS011;27108;44.776;20.476;2022-09-12T01:58:10;4.75;;;1.33;;
41365;SDS011;27108;44.776;20.476;2022-09-12T02:00:43;1.48;;;0.93;;
41365;SDS011;27108;44.776;20.476;2022-09-12T02:03:29;1.55;;;0.70;;
41365;SDS011;27108;44.776;20.476;2022-09-12T02:06:07;1.65;;;0.70;;
41365;SDS011;27108;44.776;20.476;2022-09-12T02:08:46;1.25;;;0.80;;
41365;SDS011;27108;44.776;20.476;2022-09-12T02:11:25;1.00;;;0.80;;
41365;SDS011;27108;44.776;20.476;2022-09-12T02:13:56;1.27;;;0.90;;
41365;SDS011;27108;44.776;20.476;2022-09-12T02:16:38;1.25;;;0.70;;
41365;SDS011;27108;44.776;20.476;2022-09-12T02:19:13;1.23;;;0.90;;
41365;SDS011;27108;44.776;20.476;2022-09-12T02:21:48;1.90;;;0.80;;
41365;SDS011;27108;44.776;20.476;2022-09-12T02:24:29;1.40;;;0.70;;
41365;SDS011;27108;44.776;20.476;2022-09-12T02:27:05;0.60;;;0.60;;
41365;SDS011;27108;44.776;20.476;2022-09-12T02:29:43;3.03;;;0.80;;
41365;SDS011;27108;44.776;20.476;2022-09-12T02:32:15;4.90;;;0.90;;
41365;SDS011;27108;44.776;20.476;2022-09-12T02:34:57;2.05;;;0.80;;
41365;SDS011;27108;44.776;20.476;2022-09-12T02:37:43;0.90;;;0.55;;
41365;SDS011;27108;44.776;20.476;2022-09-12T02:40:27;2.92;;;0.70;;
41365;SDS011;27108;44.776;20.476;2022-09-12T02:42:56;1.48;;;0.75;;
41365;SDS011;27108;44.776;20.476;2022-09-12T02:45:32;1.02;;;0.50;;
41365;SDS011;27108;44.776;20.476;2022-09-12T02:48:06;1.85;;;0.70;;
41365;SDS011;27108;44.776;20.476;2022-09-12T02:50:40;1.38;;;0.73;;
41365;SDS011;27108;44.776;20.476;2022-09-12T02:53:10;0.85;;;0.50;;
41365;SDS011;27108;44.776;20.476;2022-09-12T02:55:40;1.23;;;0.63;;
41365;SDS011;27108;44.776;20.476;2022-09-12T02:58:14;0.60;;;0.53;;
41365;SDS011;27108;44.776;20.476;2022-09-12T03:00:46;3.22;;;0.60;;
41365;SDS011;27108;44.776;20.476;2022-09-12T03:03:24;0.63;;;0.50;;
41365;SDS011;27108;44.776;20.476;2022-09-12T03:06:17;2.70;;;0.60;;
41365;SDS011;27108;44.776;20.476;2022-09-12T03:09:00;0.73;;;0.47;;
41365;SDS011;27108;44.776;20.476;2022-09-12T03:14:59;1.90;;;0.57;;
41365;SDS011;27108;44.776;20.476;2022-09-12T03:17:47;0.57;;;0.40;;
41365;SDS011;27108;44.776;20.476;2022-09-12T03:20:27;0.75;;;0.60;;
41365;SDS011;27108;44.776;20.476;2022-09-12T03:28:49;4.05;;;1.10;;
41365;SDS011;27108;44.776;20.476;2022-09-12T03:34:25;1.60;;;0.68;;
41365;SDS011;27108;44.776;20.476;2022-09-12T03:36:58;3.83;;;0.65;;
41365;SDS011;27108;44.776;20.476;2022-09-12T03:42:12;0.70;;;0.47;;
41365;SDS011;27108;44.776;20.476;2022-09-12T03:44:43;3.05;;;0.98;;
41365;SDS011;27108;44.776;20.476;2022-09-12T03:47:13;0.50;;;0.50;;
41365;SDS011;27108;44.776;20.476;2022-09-12T03:49:44;1.60;;;0.90;;
41365;SDS011;27108;44.776;20.476;2022-09-12T03:52:13;0.52;;;0.50;;
41365;SDS011;27108;44.776;20.476;2022-09-12T03:54:43;1.05;;;0.70;;
41365;SDS011;27108;44.776;20.476;2022-09-12T03:57:12;0.70;;;0.50;;
41365;SDS011;27108;44.776;20.476;2022-09-12T03:59:43;3.47;;;0.65;;
41365;SDS011;27108;44.776;20.476;2022-09-12T04:02:12;3.30;;;0.60;;
41365;SDS011;27108;44.776;20.476;2022-09-12T04:04:42;0.95;;;0.70;;
41365;SDS011;27108;44.776;20.476;2022-09-12T04:07:14;0.68;;;0.60;;
41365;SDS011;27108;44.776;20.476;2022-09-12T04:09:47;1.05;;;0.70;;
41365;SDS011;27108;44.776;20.476;2022-09-12T04:12:22;0.70;;;0.70;;
41365;SDS011;27108;44.776;20.476;2022-09-12T04:14:56;2.03;;;0.70;;
41365;SDS011;27108;44.776;20.476;2022-09-12T04:17:25;1.80;;;1.10;;
41365;SDS011;27108;44.776;20.476;2022-09-12T04:19:55;1.77;;;0.77;;
41365;SDS011;27108;44.776;20.476;2022-09-12T04:25:20;0.70;;;0.65;;
41365;SDS011;27108;44.776;20.476;2022-09-12T04:27:50;1.15;;;0.60;;
41365;SDS011;27108;44.776;20.476;2022-09-12T04:30:18;3.78;;;0.90;;
41365;SDS011;27108;44.776;20.476;2022-09-12T04:32:54;1.73;;;1.30;;
41365;SDS011;27108;44.776;20.476;2022-09-12T04:35:24;1.55;;;0.90;;
41365;SDS011;27108;44.776;20.476;2022-09-12T04:37:53;0.87;;;0.70;;
41365;SDS011;27108;44.776;20.476;2022-09-12T04:40:29;1.02;;;0.65;;
41365;SDS011;27108;44.776;20.476;2022-09-12T04:43:04;1.85;;;0.60;;
41365;SDS011;27108;44.776;20.476;2022-09-12T04:45:35;1.15;;;0.88;;
41365;SDS011;27108;44.776;20.476;2022-09-12T04:48:09;1.13;;;0.77;;
41365;SDS011;27108;44.776;20.476;2022-09-12T04:50:43;3.55;;;1.08;;
41365;SDS011;27108;44.776;20.476;2022-09-12T04:53:14;1.33;;;0.80;;
41365;SDS011;27108;44.776;20.476;2022-09-12T04:55:47;1.40;;;0.98;;
41365;SDS011;27108;44.776;20.476;2022-09-12T04:58:18;0.88;;;0.75;;
41365;SDS011;27108;44.776;20.476;2022-09-12T05:00:49;2.58;;;1.02;;
41365;SDS011;27108;44.776;20.476;2022-09-12T05:03:21;1.45;;;0.90;;
41365;SDS011;27108;44.776;20.476;2022-09-12T05:05:52;1.30;;;0.90;;
41365;SDS011;27108;44.776;20.476;2022-09-12T05:08:25;1.80;;;0.85;;
41365;SDS011;27108;44.776;20.476;2022-09-12T05:10:57;1.10;;;0.90;;
41365;SDS011;27108;44.776;20.476;2022-09-12T05:13:37;1.48;;;1.00;;
41365;SDS011;27108;44.776;20.476;2022-09-12T05:16:26;1.05;;;0.88;;
41365;SDS011;27108;44.776;20.476;2022-09-12T05:18:57;1.35;;;0.90;;
41365;SDS011;27108;44.776;20.476;2022-09-12T05:21:26;1.25;;;0.80;;
41365;SDS011;27108;44.776;20.476;2022-09-12T05:24:01;1.13;;;0.95;;
41365;SDS011;27108;44.776;20.476;2022-09-12T05:26:36;1.65;;;1.05;;
41365;SDS011;27108;44.776;20.476;2022-09-12T05:29:11;1.88;;;0.80;;
41365;SDS011;27108;44.776;20.476;2022-09-12T05:31:41;1.27;;;1.08;;
41365;SDS011;27108;44.776;20.476;2022-09-12T05:34:09;3.28;;;1.27;;
41365;SDS011;27108;44.776;20.476;2022-09-12T05:39:39;1.55;;;1.02;;
41365;SDS011;27108;44.776;20.476;2022-09-12T05:42:12;1.80;;;1.13;;
41365;SDS011;27108;44.776;20.476;2022-09-12T05:44:47;2.15;;;1.00;;
41365;SDS011;27108;44.776;20.476;2022-09-12T05:47:16;1.30;;;0.93;;
41365;SDS011;27108;44.776;20.476;2022-09-12T05:49:51;3.53;;;1.00;;
41365;SDS011;27108;44.776;20.476;2022-09-12T05:52:25;2.95;;;1.00;;
41365;SDS011;27108;44.776;20.476;2022-09-12T05:54:55;2.03;;;1.33;;
41365;SDS011;27108;44.776;20.476;2022-09-12T05:57:31;1.85;;;0.98;;
41365;SDS011;27108;44.776;20.476;2022-09-12T06:00:03;2.60;;;1.30;;
41365;SDS011;27108;44.776;20.476;2022-09-12T06:02:43;1.90;;;0.82;;
41365;SDS011;27108;44.776;20.476;2022-09-12T06:05:18;2.67;;;1.20;;
41365;SDS011;27108;44.776;20.476;2022-09-12T06:07:51;3.65;;;1.20;;
41365;SDS011;27108;44.776;20.476;2022-09-12T06:10:23;2.92;;;1.05;;
41365;SDS011;27108;44.776;20.476;2022-09-12T06:12:59;3.35;;;1.17;;
41365;SDS011;27108;44.776;20.476;2022-09-12T06:15:35;1.45;;;1.15;;
41365;SDS011;27108;44.776;20.476;2022-09-12T06:18:06;1.75;;;1.23;;
41365;SDS011;27108;44.776;20.476;2022-09-12T06:20:41;1.83;;;1.10;;
41365;SDS011;27108;44.776;20.476;2022-09-12T06:23:10;1.73;;;1.10;;
41365;SDS011;27108;44.776;20.476;2022-09-12T06:25:44;2.08;;;1.00;;
41365;SDS011;27108;44.776;20.476;2022-09-12T06:28:17;1.70;;;1.17;;
41365;SDS011;27108;44.776;20.476;2022-09-12T06:30:50;4.35;;;1.33;;
41365;SDS011;27108;44.776;20.476;2022-09-12T06:33:25;3.85;;;1.40;;
41365;SDS011;27108;44.776;20.476;2022-09-12T06:36:00;1.80;;;1.30;;
41365;SDS011;27108;44.776;20.476;2022-09-12T06:38:35;1.15;;;0.90;;
41365;SDS011;27108;44.776;20.476;2022-09-12T06:44:07;4.55;;;2.10;;
41365;SDS011;27108;44.776;20.476;2022-09-12T06:49:41;2.25;;;1.13;;
41365;SDS011;27108;44.776;20.476;2022-09-12T06:52:10;2.17;;;1.27;;
41365;SDS011;27108;44.776;20.476;2022-09-12T06:54:41;3.45;;;1.38;;
41365;SDS011;27108;44.776;20.476;2022-09-12T06:57:11;2.20;;;1.30;;
41365;SDS011;27108;44.776;20.476;2022-09-12T06:59:42;3.38;;;1.42;;
41365;SDS011;27108;44.776;20.476;2022-09-12T07:02:14;2.78;;;1.65;;
41365;SDS011;27108;44.776;20.476;2022-09-12T07:07:14;5.32;;;2.40;;
41365;SDS011;27108;44.776;20.476;2022-09-12T07:09:45;3.22;;;1.55;;
41365;SDS011;27108;44.776;20.476;2022-09-12T07:12:17;2.55;;;1.67;;
41365;SDS011;27108;44.776;20.476;2022-09-12T07:17:44;4.22;;;1.52;;
41365;SDS011;27108;44.776;20.476;2022-09-12T07:20:13;4.03;;;2.00;;
41365;SDS011;27108;44.776;20.476;2022-09-12T07:25:50;2.63;;;1.50;;
41365;SDS011;27108;44.776;20.476;2022-09-12T07:34:21;3.90;;;2.13;;
41365;SDS011;27108;44.776;20.476;2022-09-12T07:36:56;1.73;;;1.30;;
41365;SDS011;27108;44.776;20.476;2022-09-12T07:39:31;2.88;;;1.52;;
41365;SDS011;27108;44.776;20.476;2022-09-12T07:42:06;2.45;;;1.30;;
41365;SDS011;27108;44.776;20.476;2022-09-12T07:44:35;3.40;;;2.08;;
41365;SDS011;27108;44.776;20.476;2022-09-12T07:47:09;3.58;;;2.00;;
41365;SDS011;27108;44.776;20.476;2022-09-12T07:49:38;3.10;;;1.40;;
41365;SDS011;27108;44.776;20.476;2022-09-12T07:52:09;2.70;;;1.65;;
41365;SDS011;27108;44.776;20.476;2022-09-12T07:54:38;2.45;;;1.60;;
41365;SDS011;27108;44.776;20.476;2022-09-12T07:57:17;2.38;;;1.50;;
41365;SDS011;27108;44.776;20.476;2022-09-12T07:59:46;3.08;;;1.65;;
41365;SDS011;27108;44.776;20.476;2022-09-12T08:02:25;2.60;;;1.40;;
41365;SDS011;27108;44.776;20.476;2022-09-12T08:04:54;2.95;;;1.30;;
41365;SDS011;27108;44.776;20.476;2022-09-12T08:07:27;2.08;;;1.50;;
41365;SDS011;27108;44.776;20.476;2022-09-12T08:10:02;2.33;;;1.23;;
41365;SDS011;27108;44.776;20.476;2022-09-12T08:12:34;3.38;;;1.25;;
41365;SDS011;27108;44.776;20.476;2022-09-12T08:15:09;4.30;;;1.92;;
41365;SDS011;27108;44.776;20.476;2022-09-12T08:17:45;3.33;;;1.55;;
41365;SDS011;27108;44.776;20.476;2022-09-12T08:23:07;2.95;;;1.70;;
41365;SDS011;27108;44.776;20.476;2022-09-12T08:25:37;1.95;;;1.27;;
41365;SDS011;27108;44.776;20.476;2022-09-12T08:28:08;1.92;;;1.25;;
41365;SDS011;27108;44.776;20.476;2022-09-12T08:33:10;2.58;;;1.50;;
41365;SDS011;27108;44.776;20.476;2022-09-12T08:35:45;1.58;;;1.13;;
41365;SDS011;27108;44.776;20.476;2022-09-12T08:38:15;2.47;;;1.60;;
41365;SDS011;27108;44.776;20.476;2022-09-12T08:40:52;2.13;;;1.25;;
41365;SDS011;27108;44.776;20.476;2022-09-12T08:43:32;2.22;;;1.40;;
41365;SDS011;27108;44.776;20.476;2022-09-12T08:46:20;3.67;;;1.30;;
41365;SDS011;27108;44.776;20.476;2022-09-12T08:48:53;1.50;;;1.10;;
41365;SDS011;27108;44.776;20.476;2022-09-12T08:51:27;1.80;;;1.20;;
41365;SDS011;27108;44.776;20.476;2022-09-12T08:54:04;3.25;;;1.50;;
41365;SDS011;27108;44.776;20.476;2022-09-12T08:56:50;1.30;;;1.00;;
41365;SDS011;27108;44.776;20.476;2022-09-12T08:59:27;2.50;;;1.30;;
41365;SDS011;27108;44.776;20.476;2022-09-12T09:02:01;4.20;;;1.35;;
41365;SDS011;27108;44.776;20.476;2022-09-12T09:04:43;2.90;;;1.38;;
41365;SDS011;27108;44.776;20.476;2022-09-12T09:07:27;3.05;;;1.65;;
41365;SDS011;27108;44.776;20.476;2022-09-12T09:10:15;2.15;;;1.45;;
41365;SDS011;27108;44.776;20.476;2022-09-12T09:12:59;5.03;;;1.65;;
41365;SDS011;27108;44.776;20.476;2022-09-12T09:15:40;2.80;;;1.52;;
41365;SDS011;27108;44.776;20.476;2022-09-12T09:18:26;2.53;;;1.10;;
41365;SDS011;27108;44.776;20.476;2022-09-12T09:24:04;2.42;;;1.25;;
41365;SDS011;27108;44.776;20.476;2022-09-12T09:29:42;2.85;;;1.50;;
41365;SDS011;27108;44.776;20.476;2022-09-12T09:35:13;2.38;;;1.23;;
41365;SDS011;27108;44.776;20.476;2022-09-12T09:37:52;2.15;;;1.40;;
41365;SDS011;27108;44.776;20.476;2022-09-12T09:40:31;3.92;;;1.08;;
41365;SDS011;27108;44.776;20.476;2022-09-12T09:43:12;1.87;;;1.27;;
41365;SDS011;27108;44.776;20.476;2022-09-12T09:45:49;1.92;;;1.15;;
41365;SDS011;27108;44.776;20.476;2022-09-12T09:48:26;2.70;;;1.40;;
41365;SDS011;27108;44.776;20.476;2022-09-12T09:50:58;1.70;;;1.10;;
41365;SDS011;27108;44.776;20.476;2022-09-12T09:56:04;3.33;;;1.15;;
41365;SDS011;27108;44.776;20.476;2022-09-12T09:58:37;1.90;;;1.20;;
41365;SDS011;27108;44.776;20.476;2022-09-12T10:01:14;1.98;;;1.17;;
41365;SDS011;27108;44.776;20.476;2022-09-12T10:03:55;3.53;;;1.23;;
41365;SDS011;27108;44.776;20.476;2022-09-12T10:06:25;2.42;;;1.30;;
41365;SDS011;27108;44.776;20.476;2022-09-12T10:11:59;4.03;;;1.17;;
41365;SDS011;27108;44.776;20.476;2022-09-12T10:14:55;1.90;;;1.30;;
41365;SDS011;27108;44.776;20.476;2022-09-12T10:17:30;2.00;;;1.30;;
41365;SDS011;27108;44.776;20.476;2022-09-12T10:23:02;2.90;;;1.63;;
41365;SDS011;27108;44.776;20.476;2022-09-12T10:25:55;5.05;;;1.20;;
41365;SDS011;27108;44.776;20.476;2022-09-12T10:28:30;1.45;;;1.10;;
41365;SDS011;27108;44.776;20.476;2022-09-12T10:31:03;1.20;;;1.08;;
41365;SDS011;27108;44.776;20.476;2022-09-12T10:33:36;2.03;;;1.40;;
41365;SDS011;27108;44.776;20.476;2022-09-12T10:36:14;2.78;;;1.45;;
41365;SDS011;27108;44.776;20.476;2022-09-12T10:38:48;3.00;;;1.63;;
41365;SDS011;27108;44.776;20.476;2022-09-12T10:41:23;2.67;;;1.58;;
41365;SDS011;27108;44.776;20.476;2022-09-12T10:46:54;2.78;;;1.80;;
41365;SDS011;27108;44.776;20.476;2022-09-12T10:49:30;2.50;;;1.30;;
41365;SDS011;27108;44.776;20.476;2022-09-12T10:52:15;3.25;;;1.27;;
41365;SDS011;27108;44.776;20.476;2022-09-12T10:54:49;2.95;;;1.60;;
41365;SDS011;27108;44.776;20.476;2022-09-12T10:57:28;3.38;;;1.58;;
41365;SDS011;27108;44.776;20.476;2022-09-12T11:00:12;2.65;;;1.33;;
41365;SDS011;27108;44.776;20.476;2022-09-12T11:02:58;2.63;;;1.35;;
41365;SDS011;27108;44.776;20.476;2022-09-12T11:05:43;3.55;;;1.45;;
41365;SDS011;27108;44.776;20.476;2022-09-12T11:08:30;2.03;;;1.17;;
41365;SDS011;27108;44.776;20.476;2022-09-12T11:11:28;7.43;;;1.40;;
41365;SDS011;27108;44.776;20.476;2022-09-12T11:14:23;2.42;;;1.17;;
41365;SDS011;27108;44.776;20.476;2022-09-12T11:17:04;2.75;;;1.23;;
41365;SDS011;27108;44.776;20.476;2022-09-12T11:19:44;3.47;;;1.75;;
41365;SDS011;27108;44.776;20.476;2022-09-12T11:22:31;5.18;;;1.30;;
41365;SDS011;27108;44.776;20.476;2022-09-12T11:25:11;1.60;;;1.10;;
41365;SDS011;27108;44.776;20.476;2022-09-12T11:27:53;1.75;;;1.10;;
41365;SDS011;27108;44.776;20.476;2022-09-12T11:30:53;1.55;;;1.05;;
41365;SDS011;27108;44.776;20.476;2022-09-12T11:33:38;3.28;;;1.35;;
41365;SDS011;27108;44.776;20.476;2022-09-12T11:36:15;2.25;;;1.48;;
41365;SDS011;27108;44.776;20.476;2022-09-12T11:39:01;1.75;;;1.13;;
41365;SDS011;27108;44.776;20.476;2022-09-12T11:41:40;4.32;;;1.60;;
41365;SDS011;27108;44.776;20.476;2022-09-12T11:44:15;3.33;;;1.20;;
41365;SDS011;27108;44.776;20.476;2022-09-12T11:46:53;2.50;;;1.40;;
41365;SDS011;27108;44.776;20.476;2022-09-12T11:49:24;1.75;;;1.10;;
41365;SDS011;27108;44.776;20.476;2022-09-12T11:52:05;2.33;;;1.00;;
41365;SDS011;27108;44.776;20.476;2022-09-12T11:57:28;2.33;;;1.30;;
41365;SDS011;27108;44.776;20.476;2022-09-12T12:00:03;4.20;;;2.03;;
41365;SDS011;27108;44.776;20.476;2022-09-12T12:02:53;4.78;;;1.13;;
41365;SDS011;27108;44.776;20.476;2022-09-12T12:05:33;2.40;;;1.42;;
41365;SDS011;27108;44.776;20.476;2022-09-12T12:08:08;4.13;;;1.85;;
41365;SDS011;27108;44.776;20.476;2022-09-12T12:10:41;2.77;;;1.47;;
41365;SDS011;27108;44.776;20.476;2022-09-12T12:13:21;3.10;;;1.42;;
41365;SDS011;27108;44.776;20.476;2022-09-12T12:15:54;2.58;;;1.38;;
41365;SDS011;27108;44.776;20.476;2022-09-12T12:18:32;5.80;;;2.58;;
41365;SDS011;27108;44.776;20.476;2022-09-12T12:24:02;2.42;;;1.50;;
41365;SDS011;27108;44.776;20.476;2022-09-12T12:26:43;3.22;;;1.30;;
41365;SDS011;27108;44.776;20.476;2022-09-12T12:38:25;3.40;;;1.63;;
41365;SDS011;27108;44.776;20.476;2022-09-12T12:41:04;3.08;;;1.60;;
41365;SDS011;27108;44.776;20.476;2022-09-12T12:47:19;2.90;;;1.40;;
41365;SDS011;27108;44.776;20.476;2022-09-12T12:49:53;5.72;;;3.08;;
41365;SDS011;27108;44.776;20.476;2022-09-12T12:52:27;4.65;;;2.08;;
41365;SDS011;27108;44.776;20.476;2022-09-12T12:55:04;2.58;;;1.38;;
41365;SDS011;27108;44.776;20.476;2022-09-12T13:00:31;3.20;;;1.27;;
41365;SDS011;27108;44.776;20.476;2022-09-12T13:03:08;2.03;;;1.15;;
41365;SDS011;27108;44.776;20.476;2022-09-12T13:05:53;3.50;;;1.40;;
41365;SDS011;27108;44.776;20.476;2022-09-12T13:11:29;2.72;;;1.48;;
41365;SDS011;27108;44.776;20.476;2022-09-12T13:14:06;1.35;;;0.90;;
41365;SDS011;27108;44.776;20.476;2022-09-12T13:23:01;2.47;;;1.00;;
41365;SDS011;27108;44.776;20.476;2022-09-12T13:25:34;3.35;;;1.95;;
41365;SDS011;27108;44.776;20.476;2022-09-12T13:28:14;3.53;;;2.03;;
41365;SDS011;27108;44.776;20.476;2022-09-12T13:30:54;4.43;;;1.42;;
41365;SDS011;27108;44.776;20.476;2022-09-12T13:33:34;2.45;;;1.40;;
41365;SDS011;27108;44.776;20.476;2022-09-12T13:39:14;6.75;;;1.92;;
41365;SDS011;27108;44.776;20.476;2022-09-12T13:44:56;1.60;;;0.98;;
41365;SDS011;27108;44.776;20.476;2022-09-12T13:47:31;2.55;;;1.55;;
41365;SDS011;27108;44.776;20.476;2022-09-12T13:50:07;3.38;;;1.10;;
41365;SDS011;27108;44.776;20.476;2022-09-12T13:52:49;2.90;;;1.30;;
41365;SDS011;27108;44.776;20.476;2022-09-12T13:55:31;2.13;;;1.20;;
41365;SDS011;27108;44.776;20.476;2022-09-12T13:58:14;1.52;;;1.20;;
41365;SDS011;27108;44.776;20.476;2022-09-12T14:00:44;2.83;;;1.50;;
41365;SDS011;27108;44.776;20.476;2022-09-12T14:03:25;2.28;;;1.23;;
41365;SDS011;27108;44.776;20.476;2022-09-12T14:06:19;1.80;;;1.10;;
41365;SDS011;27108;44.776;20.476;2022-09-12T14:08:53;2.22;;;1.23;;
41365;SDS011;27108;44.776;20.476;2022-09-12T14:11:30;1.45;;;1.10;;
41365;SDS011;27108;44.776;20.476;2022-09-12T14:17:07;2.63;;;1.20;;
41365;SDS011;27108;44.776;20.476;2022-09-12T14:19:51;2.60;;;1.40;;
41365;SDS011;27108;44.776;20.476;2022-09-12T14:22:23;1.45;;;1.15;;
41365;SDS011;27108;44.776;20.476;2022-09-12T14:24:55;2.00;;;1.30;;
41365;SDS011;27108;44.776;20.476;2022-09-12T14:27:26;2.35;;;1.30;;
41365;SDS011;27108;44.776;20.476;2022-09-12T14:30:04;2.63;;;1.17;;
41365;SDS011;27108;44.776;20.476;2022-09-12T14:33:00;3.03;;;1.10;;
41365;SDS011;27108;44.776;20.476;2022-09-12T14:35:34;1.40;;;1.10;;
41365;SDS011;27108;44.776;20.476;2022-09-12T14:38:15;1.67;;;1.02;;
41365;SDS011;27108;44.776;20.476;2022-09-12T14:40:50;1.70;;;1.08;;
41365;SDS011;27108;44.776;20.476;2022-09-12T14:43:33;3.22;;;1.27;;
41365;SDS011;27108;44.776;20.476;2022-09-12T14:46:13;1.70;;;1.00;;
41365;SDS011;27108;44.776;20.476;2022-09-12T14:54:33;1.85;;;1.08;;
41365;SDS011;27108;44.776;20.476;2022-09-12T15:00:16;1.50;;;0.93;;
41365;SDS011;27108;44.776;20.476;2022-09-12T15:02:55;2.00;;;1.00;;
41365;SDS011;27108;44.776;20.476;2022-09-12T15:05:53;3.63;;;1.42;;
41365;SDS011;27108;44.776;20.476;2022-09-12T15:08:22;2.78;;;1.30;;
41365;SDS011;27108;44.776;20.476;2022-09-12T15:10:52;2.17;;;1.13;;
41365;SDS011;27108;44.776;20.476;2022-09-12T15:13:21;1.60;;;1.10;;
41365;SDS011;27108;44.776;20.476;2022-09-12T15:15:56;2.60;;;1.10;;
41365;SDS011;27108;44.776;20.476;2022-09-12T15:18:27;1.85;;;1.33;;
41365;SDS011;27108;44.776;20.476;2022-09-12T15:26:46;1.50;;;0.80;;
41365;SDS011;27108;44.776;20.476;2022-09-12T15:29:15;1.77;;;0.85;;
41365;SDS011;27108;44.776;20.476;2022-09-12T15:31:46;0.90;;;0.80;;
41365;SDS011;27108;44.776;20.476;2022-09-12T15:34:22;1.42;;;0.88;;
41365;SDS011;27108;44.776;20.476;2022-09-12T15:36:52;2.03;;;1.00;;
41365;SDS011;27108;44.776;20.476;2022-09-12T15:39:25;2.25;;;1.10;;
41365;SDS011;27108;44.776;20.476;2022-09-12T15:41:56;2.72;;;1.05;;
41365;SDS011;27108;44.776;20.476;2022-09-12T15:44:30;2.30;;;0.85;;
41365;SDS011;27108;44.776;20.476;2022-09-12T15:46:59;2.08;;;1.10;;
41365;SDS011;27108;44.776;20.476;2022-09-12T15:49:32;2.70;;;1.20;;
41365;SDS011;27108;44.776;20.476;2022-09-12T15:52:04;1.65;;;1.00;;
41365;SDS011;27108;44.776;20.476;2022-09-12T15:54:52;4.07;;;1.10;;
41365;SDS011;27108;44.776;20.476;2022-09-12T15:57:24;3.97;;;0.93;;
41365;SDS011;27108;44.776;20.476;2022-09-12T16:02:21;1.88;;;1.00;;
41365;SDS011;27108;44.776;20.476;2022-09-12T16:04:54;2.15;;;1.10;;
41365;SDS011;27108;44.776;20.476;2022-09-12T16:07:27;6.05;;;1.15;;
41365;SDS011;27108;44.776;20.476;2022-09-12T16:09:55;4.03;;;1.55;;
41365;SDS011;27108;44.776;20.476;2022-09-12T16:12:24;2.25;;;1.17;;
41365;SDS011;27108;44.776;20.476;2022-09-12T16:14:54;3.00;;;0.93;;
41365;SDS011;27108;44.776;20.476;2022-09-12T16:17:23;2.55;;;1.25;;
41365;SDS011;27108;44.776;20.476;2022-09-12T16:19:56;1.60;;;1.00;;
41365;SDS011;27108;44.776;20.476;2022-09-12T16:22:28;2.42;;;1.23;;
41365;SDS011;27108;44.776;20.476;2022-09-12T16:24:58;2.63;;;1.10;;
41365;SDS011;27108;44.776;20.476;2022-09-12T16:27:27;1.10;;;0.82;;
41365;SDS011;27108;44.776;20.476;2022-09-12T16:29:58;3.03;;;1.35;;
41365;SDS011;27108;44.776;20.476;2022-09-12T16:32:27;1.88;;;1.13;;
41365;SDS011;27108;44.776;20.476;2022-09-12T16:34:58;3.50;;;1.58;;
41365;SDS011;27108;44.776;20.476;2022-09-12T16:37:27;4.40;;;1.20;;
41365;SDS011;27108;44.776;20.476;2022-09-12T16:39:56;2.38;;;1.30;;
41365;SDS011;27108;44.776;20.476;2022-09-12T16:42:25;3.42;;;1.33;;
41365;SDS011;27108;44.776;20.476;2022-09-12T16:44:55;2.47;;;1.27;;
41365;SDS011;27108;44.776;20.476;2022-09-12T16:47:24;3.45;;;1.38;;
41365;SDS011;27108;44.776;20.476;2022-09-12T16:49:52;2.50;;;1.35;;
41365;SDS011;27108;44.776;20.476;2022-09-12T16:52:28;2.05;;;1.17;;
41365;SDS011;27108;44.776;20.476;2022-09-12T16:54:58;2.15;;;1.08;;
41365;SDS011;27108;44.776;20.476;2022-09-12T16:57:26;2.20;;;1.27;;
41365;SDS011;27108;44.776;20.476;2022-09-12T16:59:55;2.38;;;1.40;;
41365;SDS011;27108;44.776;20.476;2022-09-12T17:02:25;2.45;;;1.30;;
41365;SDS011;27108;44.776;20.476;2022-09-12T17:04:59;1.90;;;1.25;;
41365;SDS011;27108;44.776;20.476;2022-09-12T17:07:30;1.92;;;1.23;;
41365;SDS011;27108;44.776;20.476;2022-09-12T17:10:02;3.10;;;1.60;;
41365;SDS011;27108;44.776;20.476;2022-09-12T17:12:31;2.38;;;1.45;;
41365;SDS011;27108;44.776;20.476;2022-09-12T17:15:03;3.78;;;1.50;;
41365;SDS011;27108;44.776;20.476;2022-09-12T17:17:34;2.90;;;1.55;;
41365;SDS011;27108;44.776;20.476;2022-09-12T17:20:02;5.93;;;1.90;;
41365;SDS011;27108;44.776;20.476;2022-09-12T17:22:34;4.38;;;1.73;;
41365;SDS011;27108;44.776;20.476;2022-09-12T17:25:03;3.70;;;1.65;;
41365;SDS011;27108;44.776;20.476;2022-09-12T17:27:35;2.70;;;1.70;;
41365;SDS011;27108;44.776;20.476;2022-09-12T17:30:03;3.85;;;1.75;;
41365;SDS011;27108;44.776;20.476;2022-09-12T17:32:36;3.83;;;1.73;;
41365;SDS011;27108;44.776;20.476;2022-09-12T17:35:08;5.75;;;1.95;;
41365;SDS011;27108;44.776;20.476;2022-09-12T17:37:43;4.60;;;1.92;;